createdAt,value
2019-04-23T00:02:13.675Z,52.20
2019-04-23T00:04:45.187Z,52.10
2019-04-23T00:07:26.586Z,51.70
2019-04-23T00:09:46.488Z,51.80
2019-04-23T00:12:24.964Z,51.90
2019-04-23T00:14:46.008Z,52.00
2019-04-23T00:17:17.931Z,52.00
2019-04-23T00:19:50.250Z,52.30
2019-04-23T00:22:29.149Z,53.00
2019-04-23T00:25:41.539Z,53.10
2019-04-23T00:27:40.335Z,52.90
2019-04-23T00:30:18.706Z,52.90
2019-04-23T00:40:03.517Z,55.10
2019-04-23T00:42:40.467Z,56.10
2019-04-23T00:45:05.030Z,56.50
2019-04-23T00:50:20.773Z,57.80
2019-04-23T00:52:35.271Z,59.10
2019-04-23T00:57:35.898Z,61.00
2019-04-23T01:00:14.118Z,62.30
2019-04-23T01:02:43.891Z,64.30
2019-04-23T01:07:33.382Z,67.00
2019-04-23T01:10:10.320Z,70.00
2019-04-23T01:15:15.687Z,75.10
2019-04-23T01:17:49.230Z,79.50
2019-04-23T01:20:24.598Z,81.90
2019-04-23T01:22:33.485Z,84.50
2019-04-23T01:25:13.576Z,84.30
2019-04-23T01:28:44.987Z,84.90
2019-04-23T01:31:05.274Z,85.90
2019-04-23T01:33:35.563Z,88.30
2019-04-23T01:36:09.683Z,88.80
2019-04-23T01:38:32.094Z,89.40
2019-04-23T01:40:53.728Z,90.40
2019-04-23T01:43:22.867Z,91.20
2019-04-23T01:45:49.808Z,90.80
2019-04-23T01:48:29.995Z,90.90
2019-04-23T01:50:52.838Z,91.60
2019-04-23T01:53:26.530Z,91.20
2019-04-23T01:58:38.269Z,91.80
2019-04-23T02:00:53.259Z,92.20
2019-04-23T02:03:19.380Z,91.90
2019-04-23T02:05:58.904Z,91.80
2019-04-23T02:08:19.342Z,91.60
2019-04-23T02:10:56.729Z,91.60
2019-04-23T02:13:23.766Z,92.40
2019-04-23T02:16:03.043Z,92.70
2019-04-23T02:18:23.104Z,92.60
2019-04-23T02:20:56.583Z,93.20
2019-04-23T02:23:49.377Z,93.50
2019-04-23T02:26:27.776Z,93.80
2019-04-23T02:28:54.536Z,93.10
2019-04-23T02:31:52.997Z,93.30
2019-04-23T02:34:08.810Z,93.80
2019-04-23T02:36:29.244Z,93.70
2019-04-23T02:44:04.346Z,92.80
2019-04-23T02:46:13.558Z,92.90
2019-04-23T02:51:42.390Z,92.70
2019-04-23T02:54:10.148Z,92.80
2019-04-23T02:56:47.113Z,93.10
2019-04-23T02:59:02.205Z,92.80
2019-04-23T03:01:25.234Z,93.00
2019-04-23T03:03:59.580Z,93.00
2019-04-23T03:06:29.194Z,93.30
2019-04-23T03:08:53.036Z,92.80
2019-04-23T03:11:30.666Z,93.00
2019-04-23T03:19:37.724Z,93.30
2019-04-23T03:22:44.531Z,93.00
2019-04-23T03:27:41.866Z,93.20
2019-04-23T03:35:15.926Z,92.90
2019-04-23T03:37:58.541Z,93.90
2019-04-23T03:40:23.558Z,94.70
2019-04-23T03:42:57.730Z,95.20
2019-04-23T03:45:54.085Z,95.40
2019-04-23T03:48:15.000Z,96.60
2019-04-23T03:50:32.631Z,97.40
2019-04-23T03:53:18.410Z,97.80
2019-04-23T03:57:52.221Z,96.40
2019-04-23T04:00:33.330Z,96.20
2019-04-23T04:05:31.428Z,96.30
2019-04-23T04:08:10.305Z,97.20
2019-04-23T04:10:25.443Z,97.40
2019-04-23T04:12:46.041Z,98.40
2019-04-23T04:18:06.579Z,98.10
2019-04-23T04:20:35.899Z,98.50
2019-04-23T04:23:09.372Z,99.00
2019-04-23T04:30:29.598Z,99.60
2019-04-23T04:33:19.498Z,99.30
2019-04-23T04:38:13.015Z,98.60
2019-04-23T04:40:28.964Z,98.20
2019-04-23T04:47:44.688Z,97.00
2019-04-23T04:50:16.923Z,96.60
2019-04-23T04:55:23.577Z,95.80
2019-04-23T04:58:07.456Z,95.50
2019-04-23T05:00:54.234Z,94.60
2019-04-23T05:03:19.248Z,93.60
2019-04-23T05:08:13.858Z,93.00
2019-04-23T05:11:02.267Z,92.10
2019-04-23T05:13:34.275Z,91.50
2019-04-23T05:16:00.502Z,90.90
2019-04-23T05:18:34.626Z,90.30
2019-04-23T05:23:51.081Z,87.80
2019-04-23T05:26:20.966Z,86.90
2019-04-23T05:28:55.939Z,85.50
2019-04-23T05:31:20.299Z,84.00
2019-04-23T05:33:47.905Z,83.30
2019-04-23T05:38:50.803Z,82.10
2019-04-23T05:41:27.110Z,80.60
2019-04-23T05:43:46.819Z,79.80
2019-04-23T05:46:23.237Z,78.10
2019-04-23T05:48:50.453Z,78.50
2019-04-23T05:51:23.631Z,77.60
2019-04-23T05:53:46.679Z,76.60
2019-04-23T05:56:15.172Z,76.30
2019-04-23T05:58:45.384Z,76.80
2019-04-23T06:03:58.261Z,74.70
2019-04-23T06:06:33.085Z,74.90
2019-04-23T06:08:55.142Z,74.70
2019-04-23T06:11:34.882Z,73.50
2019-04-23T06:14:02.133Z,72.80
2019-04-23T06:16:31.543Z,72.10
2019-04-23T06:18:53.382Z,71.70
2019-04-23T06:21:24.041Z,70.00
2019-04-23T06:23:55.423Z,68.50
2019-04-23T06:26:32.906Z,69.70
2019-04-23T06:28:56.112Z,69.90
2019-04-23T06:31:23.035Z,68.80
2019-04-23T06:33:50.228Z,65.50
2019-04-23T06:41:21.398Z,64.30
2019-04-23T06:44:19.116Z,64.40
2019-04-23T06:46:50.186Z,65.70
2019-04-23T06:49:17.044Z,66.70
2019-04-23T06:52:06.737Z,66.00
2019-04-23T06:54:27.884Z,66.30
2019-04-23T06:57:19.168Z,65.60
2019-04-23T07:00:08.380Z,64.40
2019-04-23T07:03:00.685Z,63.10
2019-04-23T07:09:05.063Z,62.80
2019-04-23T07:16:17.943Z,61.60
2019-04-23T07:19:09.207Z,62.70
2019-04-23T07:26:29.732Z,64.20
2019-04-23T07:28:53.165Z,66.00
2019-04-23T07:33:55.813Z,63.30
2019-04-23T07:44:56.456Z,61.10
2019-04-23T07:47:25.192Z,59.60
2019-04-23T07:50:17.082Z,58.60
2019-04-23T07:52:45.045Z,57.40
2019-04-23T07:55:21.989Z,56.80
2019-04-23T07:58:00.716Z,56.30
2019-04-23T08:00:31.015Z,56.00
2019-04-23T08:02:57.919Z,55.50
2019-04-23T08:05:22.510Z,55.80
2019-04-23T08:07:52.485Z,55.10
2019-04-23T08:10:21.008Z,54.10
2019-04-23T08:12:55.823Z,54.10
2019-04-23T08:15:23.178Z,54.50
2019-04-23T08:17:56.062Z,55.20
2019-04-23T08:20:23.076Z,54.50
2019-04-23T08:22:57.309Z,55.90
2019-04-23T08:25:56.419Z,55.70
2019-04-23T08:28:25.481Z,55.30
2019-04-23T08:30:46.510Z,54.10
2019-04-23T08:33:23.353Z,54.90
2019-04-23T08:35:57.782Z,55.20
2019-04-23T08:38:25.868Z,55.70
2019-04-23T08:41:03.930Z,54.70
2019-04-23T08:43:36.905Z,54.10
2019-04-23T08:46:17.181Z,53.90
2019-04-23T08:48:55.715Z,54.30
2019-04-23T08:51:29.748Z,54.10
2019-04-23T08:53:50.775Z,53.20
2019-04-23T08:56:15.085Z,53.80
2019-04-23T08:58:47.431Z,53.90
2019-04-23T09:01:15.598Z,53.90
2019-04-23T09:04:00.582Z,55.50
2019-04-23T09:06:20.217Z,54.90
2019-04-23T09:08:48.054Z,54.50
2019-04-23T09:11:43.464Z,52.90
2019-04-23T09:16:15.698Z,48.00
2019-04-23T09:18:46.087Z,47.60
2019-04-23T09:21:16.036Z,46.40
2019-04-23T09:23:50.798Z,46.60
2019-04-23T09:26:08.910Z,46.70
2019-04-23T09:28:53.287Z,46.70
2019-04-23T09:31:38.209Z,45.70
2019-04-23T09:34:26.564Z,45.30
2019-04-23T09:37:10.275Z,45.50
2019-04-23T09:40:22.350Z,45.80
2019-04-23T09:43:31.233Z,46.90
2019-04-23T09:46:23.412Z,47.10
2019-04-23T09:48:59.745Z,46.60
2019-04-23T09:51:29.832Z,47.40
2019-04-23T09:53:51.213Z,47.30
2019-04-23T09:56:25.070Z,47.00
2019-04-23T09:59:02.738Z,46.90
2019-04-23T10:03:47.130Z,45.60
2019-04-23T10:06:18.352Z,45.20
2019-04-23T10:08:52.192Z,44.50
2019-04-23T10:11:22.047Z,44.30
2019-04-23T10:13:52.730Z,45.00
2019-04-23T10:16:32.465Z,44.70
2019-04-23T10:18:59.375Z,44.40
2019-04-23T10:21:29.282Z,44.80
2019-04-23T10:23:59.286Z,44.40
2019-04-23T10:26:28.359Z,45.30
2019-04-23T10:29:13.950Z,43.60
2019-04-23T10:31:42.179Z,42.40
2019-04-23T10:34:12.243Z,43.00
2019-04-23T10:36:42.315Z,46.00
2019-04-23T10:39:19.159Z,44.60
2019-04-23T10:41:45.953Z,45.90
2019-04-23T10:44:23.511Z,44.60
2019-04-23T10:47:44.763Z,44.20
2019-04-23T11:00:53.420Z,42.20
2019-04-23T11:03:51.600Z,43.40
2019-04-23T11:06:28.054Z,43.40
2019-04-23T11:09:01.965Z,41.60
2019-04-23T11:12:24.193Z,39.80
2019-04-23T11:18:34.412Z,38.70
2019-04-23T11:21:50.973Z,38.80
2019-04-23T11:24:32.481Z,41.40
2019-04-23T11:26:49.533Z,41.40
2019-04-23T11:29:27.877Z,39.70
2019-04-23T11:32:41.211Z,39.30
2019-04-23T11:35:06.802Z,40.00
2019-04-23T11:37:36.236Z,40.20
2019-04-23T11:43:20.484Z,42.40
2019-04-23T11:51:41.131Z,38.80
2019-04-23T11:53:39.133Z,37.30
2019-04-23T11:56:20.422Z,37.80
2019-04-23T11:58:42.742Z,38.30
2019-04-23T12:01:52.659Z,38.00
2019-04-23T12:05:00.816Z,38.20
2019-04-23T12:07:32.583Z,37.70
2019-04-23T12:10:29.242Z,40.20
2019-04-23T12:12:57.708Z,38.60
2019-04-23T12:18:02.887Z,39.00
2019-04-23T12:20:31.875Z,40.20
2019-04-23T12:23:27.379Z,40.10
2019-04-23T12:25:31.251Z,38.50
2019-04-23T12:28:40.271Z,40.40
2019-04-23T12:31:56.911Z,40.30
2019-04-23T12:34:45.446Z,39.20
2019-04-23T12:37:56.271Z,38.30
2019-04-23T12:43:12.709Z,39.90
2019-04-23T12:48:15.312Z,38.20
2019-04-23T12:51:08.424Z,38.80
2019-04-23T12:54:16.991Z,39.30
2019-04-23T12:56:40.331Z,39.00
2019-04-23T12:59:05.298Z,37.50
2019-04-23T13:01:49.288Z,38.80
2019-04-23T13:04:29.970Z,38.20
2019-04-23T13:06:57.475Z,36.70
2019-04-23T13:09:42.850Z,36.90
2019-04-23T13:12:12.099Z,37.20
2019-04-23T13:14:43.668Z,36.90
2019-04-23T13:17:12.129Z,37.30
2019-04-23T13:19:47.411Z,37.50
2019-04-23T13:22:10.664Z,37.50
2019-04-23T13:24:56.023Z,37.00
2019-04-23T13:27:44.719Z,37.00
2019-04-23T13:30:16.656Z,36.40
2019-04-23T13:32:46.117Z,36.70
2019-04-23T13:35:34.009Z,38.20
2019-04-23T13:37:56.905Z,38.90
2019-04-23T13:40:24.742Z,39.30
2019-04-23T13:50:49.988Z,40.50
2019-04-23T13:53:28.776Z,40.60
2019-04-23T13:55:40.937Z,40.40
2019-04-23T13:58:16.154Z,39.00
2019-04-23T14:00:52.282Z,40.40
2019-04-23T14:06:01.726Z,41.70
2019-04-23T14:08:41.799Z,40.90
2019-04-23T14:10:55.871Z,39.90
2019-04-23T14:18:51.686Z,41.10
2019-04-23T14:21:14.266Z,40.70
2019-04-23T14:24:00.966Z,41.30
2019-04-23T14:26:21.524Z,42.20
2019-04-23T14:33:52.786Z,42.80
2019-04-23T14:36:13.662Z,41.80
2019-04-23T14:38:43.975Z,42.60
2019-04-23T14:41:16.528Z,43.40
2019-04-23T14:51:22.984Z,42.50
2019-04-23T14:58:53.458Z,43.50
2019-04-23T15:03:46.745Z,44.60
2019-04-23T15:08:57.385Z,45.20
2019-04-23T15:11:26.354Z,44.60
2019-04-23T15:13:54.041Z,45.40
2019-04-23T15:16:31.551Z,45.40
2019-04-23T15:22:10.048Z,45.10
2019-04-23T15:24:27.732Z,45.10
2019-04-23T15:27:48.517Z,45.50
2019-04-23T15:29:03.833Z,46.00
2019-04-23T15:31:59.243Z,46.00
2019-04-23T15:34:30.466Z,47.90
2019-04-23T15:39:21.474Z,48.40
2019-04-23T15:46:56.654Z,46.90
2019-04-23T15:51:56.541Z,48.00
2019-04-23T15:54:25.298Z,48.40
2019-04-23T15:59:35.043Z,50.20
2019-04-23T16:01:41.225Z,50.50
2019-04-23T16:04:01.225Z,50.40
2019-04-23T16:06:34.335Z,50.60
2019-04-23T16:09:16.322Z,51.40
2019-04-23T16:12:03.515Z,51.80
2019-04-23T16:15:03.097Z,51.90
2019-04-23T16:20:23.296Z,52.70
2019-04-23T16:25:17.461Z,53.10
2019-04-23T16:27:59.990Z,53.20
2019-04-23T16:30:45.943Z,54.50
2019-04-23T16:36:08.819Z,55.60
2019-04-23T16:41:46.829Z,56.00
2019-04-23T16:44:24.080Z,56.70
2019-04-23T16:49:21.828Z,58.20
2019-04-23T16:51:47.544Z,58.60
2019-04-23T16:54:25.073Z,59.40
2019-04-23T16:57:12.930Z,59.40
2019-04-23T17:02:03.619Z,59.70
2019-04-23T17:04:38.723Z,60.00
2019-04-23T17:07:06.897Z,60.70
2019-04-23T17:09:34.105Z,59.50
2019-04-23T17:11:59.460Z,59.80
2019-04-23T17:14:33.006Z,60.60
2019-04-23T17:17:00.048Z,61.80
2019-04-23T17:19:52.337Z,62.00
2019-04-23T17:22:07.444Z,62.60
2019-04-23T17:24:59.395Z,63.80
2019-04-23T17:27:26.304Z,66.10
2019-04-23T17:32:10.339Z,68.30
2019-04-23T17:34:56.719Z,69.40
2019-04-23T17:37:32.910Z,70.70
2019-04-23T17:40:08.553Z,71.80
2019-04-23T17:42:48.467Z,73.40
2019-04-23T17:45:26.048Z,75.60
2019-04-23T17:48:05.535Z,77.80
2019-04-23T17:50:48.102Z,78.00
2019-04-23T17:55:54.977Z,80.30
2019-04-23T17:58:16.317Z,80.30
2019-04-23T18:03:20.342Z,85.10
2019-04-23T18:05:52.337Z,85.40
2019-04-23T18:08:22.872Z,86.10
2019-04-23T18:13:26.231Z,88.50
2019-04-23T18:16:06.730Z,90.40
2019-04-23T18:18:31.089Z,90.10
2019-04-23T18:24:27.344Z,91.10
2019-04-23T18:29:55.357Z,93.40
2019-04-23T18:32:58.369Z,93.50
2019-04-23T18:35:17.043Z,94.40
2019-04-23T18:37:32.921Z,94.70
2019-04-23T18:40:00.348Z,95.10
2019-04-23T18:45:03.705Z,95.30
2019-04-23T18:47:40.225Z,95.70
2019-04-23T18:50:02.414Z,96.10
2019-04-23T18:52:50.361Z,96.00
2019-04-23T18:55:29.511Z,97.10
2019-04-23T18:57:45.766Z,97.10
2019-04-23T19:00:25.063Z,98.30
2019-04-23T19:03:02.647Z,98.60
2019-04-23T19:05:47.505Z,98.50
2019-04-23T19:11:28.859Z,98.70
2019-04-23T19:13:51.459Z,98.70
2019-04-23T19:16:24.595Z,99.50
2019-04-23T19:18:56.286Z,99.90
2019-04-23T19:21:33.773Z,99.80
2019-04-23T19:24:03.392Z,99.90
2019-04-23T19:26:49.821Z,99.90
2019-04-23T19:28:55.467Z,99.90
2019-04-23T19:31:33.237Z,99.90
2019-04-23T19:34:17.520Z,99.90
2019-04-23T19:39:11.974Z,99.90
2019-04-23T19:41:49.509Z,99.90
2019-04-23T19:44:08.702Z,99.90
2019-04-23T19:49:11.548Z,99.90
2019-04-23T19:51:51.151Z,99.90
2019-04-23T19:54:26.387Z,99.90
2019-04-23T19:56:51.259Z,99.90
2019-04-23T19:59:14.845Z,99.90
2019-04-23T20:01:56.503Z,99.90
2019-04-23T20:04:21.525Z,99.90
2019-04-23T20:09:38.479Z,99.90
2019-04-23T20:11:54.762Z,99.90
2019-04-23T20:14:26.140Z,99.90
2019-04-23T20:19:30.138Z,99.90
2019-04-23T20:24:53.622Z,99.90
2019-04-23T20:30:14.277Z,99.90
2019-04-23T20:35:16.439Z,99.90
2019-04-23T20:38:17.271Z,99.90
2019-04-23T20:40:32.996Z,99.90
2019-04-23T20:43:00.484Z,99.90
2019-04-23T20:45:41.870Z,99.90
2019-04-23T20:48:06.964Z,99.90
2019-04-23T20:50:39.446Z,99.90
2019-04-23T20:53:28.182Z,99.90
2019-04-23T20:58:54.942Z,99.90
2019-04-23T21:01:50.034Z,99.90
2019-04-23T21:04:11.344Z,99.90
2019-04-23T21:09:27.800Z,99.90
2019-04-23T21:11:55.094Z,99.90
2019-04-23T21:14:39.828Z,99.90
2019-04-23T21:16:54.896Z,99.90
2019-04-23T21:19:30.314Z,99.90
2019-04-23T21:22:13.433Z,99.90
2019-04-23T21:24:42.333Z,99.90
2019-04-23T21:27:21.840Z,99.90
2019-04-23T21:29:53.799Z,99.90
2019-04-23T21:32:27.494Z,99.90
2019-04-23T21:34:58.165Z,99.90
2019-04-23T21:37:49.809Z,99.90
2019-04-23T21:45:42.447Z,99.90
2019-04-23T21:48:18.843Z,99.90
2019-04-23T21:50:43.833Z,99.90
2019-04-23T21:53:06.747Z,99.90
2019-04-23T21:55:46.762Z,99.90
2019-04-23T21:58:15.558Z,99.90
2019-04-23T22:00:53.421Z,99.90
2019-04-23T22:03:18.864Z,99.90
2019-04-23T22:05:49.653Z,99.90
2019-04-23T22:08:08.341Z,99.90
2019-04-23T22:10:58.752Z,99.90
2019-04-23T22:13:20.324Z,99.90
2019-04-23T22:15:54.755Z,99.90
2019-04-23T22:18:12.916Z,99.90
2019-04-23T22:23:22.022Z,99.90
2019-04-23T22:25:52.603Z,99.90
2019-04-23T22:28:16.498Z,99.90
2019-04-23T22:30:50.798Z,99.90
2019-04-23T22:35:48.330Z,99.90
2019-04-23T22:38:25.951Z,99.90
2019-04-23T22:40:49.735Z,99.90
2019-04-23T22:45:55.938Z,99.90
2019-04-23T22:48:13.732Z,99.90
2019-04-23T22:50:57.226Z,99.90
2019-04-23T22:53:13.866Z,99.90
2019-04-23T22:55:58.421Z,99.90
2019-04-23T22:58:19.479Z,99.90
2019-04-23T23:01:43.184Z,99.90
2019-04-23T23:04:04.967Z,99.90
2019-04-23T23:06:50.641Z,99.90
2019-04-23T23:09:22.559Z,99.90
2019-04-23T23:11:47.522Z,99.90
2019-04-23T23:14:14.699Z,99.90
2019-04-23T23:19:20.586Z,99.90
2019-04-23T23:21:58.240Z,99.90
2019-04-23T23:26:57.375Z,99.90
2019-04-23T23:29:19.671Z,99.90
2019-04-23T23:37:00.195Z,99.90
2019-04-23T23:39:27.189Z,99.90
2019-04-23T23:41:58.451Z,99.90
2019-04-23T23:47:03.066Z,99.90
2019-04-23T23:52:12.951Z,99.90
2019-04-23T23:54:45.351Z,99.90
2019-04-23T23:57:16.623Z,99.90
